sensor_id;sensor_type;location;lat;lon;timestamp;temperature;humidity
78461;SHT31;67755;51.986;5.696;2023-05-01T00:01:24;15.6;50.6
78461;SHT31;67755;51.986;5.696;2023-05-01T00:03:54;15.6;50.3
78461;SHT31;67755;51.986;5.696;2023-05-01T00:06:24;15.6;50.4
78461;SHT31;67755;51.986;5.696;2023-05-01T00:08:54;15.5;50.5
78461;SHT31;67755;51.986;5.696;2023-05-01T00:11:24;15.5;49.9
78461;SHT31;67755;51.986;5.696;2023-05-01T00:13:53;15.5;49.7
78461;SHT31;67755;51.986;5.696;2023-05-01T00:16:23;15.5;50.3
78461;SHT31;67755;51.986;5.696;2023-05-01T00:18:53;15.5;50.0
78461;SHT31;67755;51.986;5.696;2023-05-01T00:21:22;15.5;49.9
78461;SHT31;67755;51.986;5.696;2023-05-01T00:23:54;15.5;50.2
78461;SHT31;67755;51.986;5.696;2023-05-01T00:26:23;15.4;50.0
78461;SHT31;67755;51.986;5.696;2023-05-01T00:28:57;15.4;50.4
78461;SHT31;67755;51.986;5.696;2023-05-01T00:31:27;15.4;50.0
78461;SHT31;67755;51.986;5.696;2023-05-01T00:33:56;15.4;49.6
78461;SHT31;67755;51.986;5.696;2023-05-01T00:36:26;15.4;49.6
78461;SHT31;67755;51.986;5.696;2023-05-01T00:38:56;15.4;49.4
78461;SHT31;67755;51.986;5.696;2023-05-01T00:41:25;15.4;49.4
78461;SHT31;67755;51.986;5.696;2023-05-01T00:43:55;15.4;49.5
78461;SHT31;67755;51.986;5.696;2023-05-01T00:46:25;15.3;49.8
78461;SHT31;67755;51.986;5.696;2023-05-01T00:48:56;15.3;49.4
78461;SHT31;67755;51.986;5.696;2023-05-01T00:51:28;15.3;49.1
78461;SHT31;67755;51.986;5.696;2023-05-01T00:53:59;15.3;49.5
78461;SHT31;67755;51.986;5.696;2023-05-01T00:56:29;15.3;49.9
78461;SHT31;67755;51.986;5.696;2023-05-01T00:58:59;15.3;50.2
78461;SHT31;67755;51.986;5.696;2023-05-01T01:01:29;15.3;49.7
78461;SHT31;67755;51.986;5.696;2023-05-01T01:03:59;15.2;48.9
78461;SHT31;67755;51.986;5.696;2023-05-01T01:06:35;15.2;49.7
78461;SHT31;67755;51.986;5.696;2023-05-01T01:09:20;15.2;49.9
78461;SHT31;67755;51.986;5.696;2023-05-01T01:12:05;15.2;49.5
78461;SHT31;67755;51.986;5.696;2023-05-01T01:14:43;15.2;49.3
78461;SHT31;67755;51.986;5.696;2023-05-01T01:17:23;15.1;48.5
78461;SHT31;67755;51.986;5.696;2023-05-01T01:21:49;15.1;49.2
78461;SHT31;67755;51.986;5.696;2023-05-01T01:24:41;15.1;49.4
78461;SHT31;67755;51.986;5.696;2023-05-01T01:28:21;15.1;49.2
78461;SHT31;67755;51.986;5.696;2023-05-01T01:31:07;15.1;50.2
78461;SHT31;67755;51.986;5.696;2023-05-01T01:33:51;15.1;50.0
78461;SHT31;67755;51.986;5.696;2023-05-01T01:36:36;15.0;49.5
78461;SHT31;67755;51.986;5.696;2023-05-01T01:39:13;15.0;49.9
78461;SHT31;67755;51.986;5.696;2023-05-01T01:41:49;15.0;50.3
78461;SHT31;67755;51.986;5.696;2023-05-01T01:44:24;15.0;50.0
78461;SHT31;67755;51.986;5.696;2023-05-01T01:46:58;15.0;50.2
78461;SHT31;67755;51.986;5.696;2023-05-01T01:49:30;14.9;48.5
78461;SHT31;67755;51.986;5.696;2023-05-01T01:52:01;14.9;49.7
78461;SHT31;67755;51.986;5.696;2023-05-01T01:54:36;14.9;50.1
78461;SHT31;67755;51.986;5.696;2023-05-01T01:57:08;14.9;49.7
78461;SHT31;67755;51.986;5.696;2023-05-01T01:59:43;14.9;49.5
78461;SHT31;67755;51.986;5.696;2023-05-01T02:02:15;14.9;49.6
78461;SHT31;67755;51.986;5.696;2023-05-01T02:04:47;14.9;49.0
78461;SHT31;67755;51.986;5.696;2023-05-01T02:07:18;14.8;49.5
78461;SHT31;67755;51.986;5.696;2023-05-01T02:09:50;14.8;49.0
78461;SHT31;67755;51.986;5.696;2023-05-01T02:12:24;14.8;49.8
78461;SHT31;67755;51.986;5.696;2023-05-01T02:14:56;14.8;49.4
78461;SHT31;67755;51.986;5.696;2023-05-01T02:17:27;14.8;48.5
78461;SHT31;67755;51.986;5.696;2023-05-01T02:19:58;14.7;49.4
78461;SHT31;67755;51.986;5.696;2023-05-01T02:22:29;14.7;49.5
78461;SHT31;67755;51.986;5.696;2023-05-01T02:25:01;14.7;49.5
78461;SHT31;67755;51.986;5.696;2023-05-01T02:27:35;14.7;49.7
78461;SHT31;67755;51.986;5.696;2023-05-01T02:30:06;14.7;49.2
78461;SHT31;67755;51.986;5.696;2023-05-01T02:32:36;14.7;49.5
78461;SHT31;67755;51.986;5.696;2023-05-01T02:35:06;14.7;49.5
78461;SHT31;67755;51.986;5.696;2023-05-01T02:37:37;14.7;49.8
78461;SHT31;67755;51.986;5.696;2023-05-01T02:40:10;14.6;50.3
78461;SHT31;67755;51.986;5.696;2023-05-01T02:42:43;14.6;49.8
78461;SHT31;67755;51.986;5.696;2023-05-01T02:45:18;14.6;49.9
78461;SHT31;67755;51.986;5.696;2023-05-01T02:47:51;14.6;49.9
78461;SHT31;67755;51.986;5.696;2023-05-01T02:50:25;14.6;50.2
78461;SHT31;67755;51.986;5.696;2023-05-01T02:52:55;14.6;50.4
78461;SHT31;67755;51.986;5.696;2023-05-01T02:55:27;14.6;50.9
78461;SHT31;67755;51.986;5.696;2023-05-01T02:57:59;14.6;50.5
78461;SHT31;67755;51.986;5.696;2023-05-01T03:00:29;14.6;50.9
78461;SHT31;67755;51.986;5.696;2023-05-01T03:02:59;14.6;51.1
78461;SHT31;67755;51.986;5.696;2023-05-01T03:05:28;14.6;50.3
78461;SHT31;67755;51.986;5.696;2023-05-01T03:07:58;14.6;50.5
78461;SHT31;67755;51.986;5.696;2023-05-01T03:10:31;14.6;50.5
78461;SHT31;67755;51.986;5.696;2023-05-01T03:13:02;14.7;51.4
78461;SHT31;67755;51.986;5.696;2023-05-01T03:15:32;14.7;49.7
78461;SHT31;67755;51.986;5.696;2023-05-01T03:18:01;14.7;49.8
78461;SHT31;67755;51.986;5.696;2023-05-01T03:20:32;14.7;50.4
78461;SHT31;67755;51.986;5.696;2023-05-01T03:23:01;14.7;50.2
78461;SHT31;67755;51.986;5.696;2023-05-01T03:25:31;14.7;50.5
78461;SHT31;67755;51.986;5.696;2023-05-01T03:28:02;14.7;50.2
78461;SHT31;67755;51.986;5.696;2023-05-01T03:30:34;14.7;50.5
78461;SHT31;67755;51.986;5.696;2023-05-01T03:33:03;14.7;50.1
78461;SHT31;67755;51.986;5.696;2023-05-01T03:35:35;14.7;50.5
78461;SHT31;67755;51.986;5.696;2023-05-01T03:38:05;14.7;50.5
78461;SHT31;67755;51.986;5.696;2023-05-01T03:40:35;14.7;50.9
78461;SHT31;67755;51.986;5.696;2023-05-01T03:43:04;14.7;50.5
78461;SHT31;67755;51.986;5.696;2023-05-01T03:45:34;14.7;49.6
78461;SHT31;67755;51.986;5.696;2023-05-01T03:48:04;14.7;50.4
78461;SHT31;67755;51.986;5.696;2023-05-01T03:50:34;14.7;49.8
78461;SHT31;67755;51.986;5.696;2023-05-01T03:53:04;14.7;49.5
78461;SHT31;67755;51.986;5.696;2023-05-01T03:55:33;14.7;50.0
78461;SHT31;67755;51.986;5.696;2023-05-01T03:58:03;14.7;50.3
78461;SHT31;67755;51.986;5.696;2023-05-01T04:00:33;14.7;50.0
78461;SHT31;67755;51.986;5.696;2023-05-01T04:03:04;14.7;49.7
78461;SHT31;67755;51.986;5.696;2023-05-01T04:05:34;14.7;50.3
78461;SHT31;67755;51.986;5.696;2023-05-01T04:08:04;14.7;50.3
78461;SHT31;67755;51.986;5.696;2023-05-01T04:10:35;14.7;49.7
78461;SHT31;67755;51.986;5.696;2023-05-01T04:13:04;14.7;50.2
78461;SHT31;67755;51.986;5.696;2023-05-01T04:15:34;14.7;50.1
78461;SHT31;67755;51.986;5.696;2023-05-01T04:18:04;14.7;50.2
78461;SHT31;67755;51.986;5.696;2023-05-01T04:20:34;14.7;51.0
78461;SHT31;67755;51.986;5.696;2023-05-01T04:23:06;14.7;51.0
78461;SHT31;67755;51.986;5.696;2023-05-01T04:25:36;14.7;49.9
78461;SHT31;67755;51.986;5.696;2023-05-01T04:28:09;14.7;49.8
78461;SHT31;67755;51.986;5.696;2023-05-01T04:30:38;14.7;50.3
78461;SHT31;67755;51.986;5.696;2023-05-01T04:33:08;14.7;50.3
78461;SHT31;67755;51.986;5.696;2023-05-01T04:35:39;14.7;50.7
78461;SHT31;67755;51.986;5.696;2023-05-01T04:38:10;14.7;50.2
78461;SHT31;67755;51.986;5.696;2023-05-01T04:40:39;14.7;50.8
78461;SHT31;67755;51.986;5.696;2023-05-01T04:43:09;14.7;50.3
78461;SHT31;67755;51.986;5.696;2023-05-01T04:45:39;14.7;50.2
78461;SHT31;67755;51.986;5.696;2023-05-01T04:48:09;14.7;50.5
78461;SHT31;67755;51.986;5.696;2023-05-01T04:50:39;14.7;50.3
78461;SHT31;67755;51.986;5.696;2023-05-01T04:53:10;14.7;50.2
78461;SHT31;67755;51.986;5.696;2023-05-01T04:55:41;14.7;50.3
78461;SHT31;67755;51.986;5.696;2023-05-01T04:58:11;14.7;50.5
78461;SHT31;67755;51.986;5.696;2023-05-01T05:00:41;14.7;50.1
78461;SHT31;67755;51.986;5.696;2023-05-01T05:03:10;14.7;51.0
78461;SHT31;67755;51.986;5.696;2023-05-01T05:05:40;14.7;49.5
78461;SHT31;67755;51.986;5.696;2023-05-01T05:08:12;14.7;49.0
78461;SHT31;67755;51.986;5.696;2023-05-01T05:10:41;14.7;50.0
78461;SHT31;67755;51.986;5.696;2023-05-01T05:13:11;14.7;50.4
78461;SHT31;67755;51.986;5.696;2023-05-01T05:15:40;14.7;50.5
78461;SHT31;67755;51.986;5.696;2023-05-01T05:18:10;14.7;49.9
78461;SHT31;67755;51.986;5.696;2023-05-01T05:20:41;14.7;50.7
78461;SHT31;67755;51.986;5.696;2023-05-01T05:23:13;14.7;49.3
78461;SHT31;67755;51.986;5.696;2023-05-01T05:25:42;14.7;50.0
78461;SHT31;67755;51.986;5.696;2023-05-01T05:28:12;14.7;50.2
78461;SHT31;67755;51.986;5.696;2023-05-01T05:30:41;14.8;50.7
78461;SHT31;67755;51.986;5.696;2023-05-01T05:33:13;14.8;50.3
78461;SHT31;67755;51.986;5.696;2023-05-01T05:35:43;14.8;51.3
78461;SHT31;67755;51.986;5.696;2023-05-01T05:38:12;14.8;51.6
78461;SHT31;67755;51.986;5.696;2023-05-01T05:40:42;14.8;51.7
78461;SHT31;67755;51.986;5.696;2023-05-01T05:43:12;14.8;50.9
78461;SHT31;67755;51.986;5.696;2023-05-01T05:45:42;14.8;50.8
78461;SHT31;67755;51.986;5.696;2023-05-01T05:48:14;14.8;51.1
78461;SHT31;67755;51.986;5.696;2023-05-01T05:50:43;14.8;51.7
78461;SHT31;67755;51.986;5.696;2023-05-01T05:53:15;14.8;52.3
78461;SHT31;67755;51.986;5.696;2023-05-01T05:55:45;14.8;51.3
78461;SHT31;67755;51.986;5.696;2023-05-01T05:58:15;14.9;51.9
78461;SHT31;67755;51.986;5.696;2023-05-01T06:00:47;14.9;52.2
78461;SHT31;67755;51.986;5.696;2023-05-01T06:03:21;14.9;52.4
78461;SHT31;67755;51.986;5.696;2023-05-01T06:05:51;14.9;51.0
78461;SHT31;67755;51.986;5.696;2023-05-01T06:08:21;14.9;51.6
78461;SHT31;67755;51.986;5.696;2023-05-01T06:10:51;14.9;51.9
78461;SHT31;67755;51.986;5.696;2023-05-01T06:13:20;15.0;52.8
78461;SHT31;67755;51.986;5.696;2023-05-01T06:15:50;15.0;52.9
78461;SHT31;67755;51.986;5.696;2023-05-01T06:18:20;15.0;53.0
78461;SHT31;67755;51.986;5.696;2023-05-01T06:20:49;15.0;50.2
78461;SHT31;67755;51.986;5.696;2023-05-01T06:23:19;15.0;50.2
78461;SHT31;67755;51.986;5.696;2023-05-01T06:25:50;15.1;50.4
78461;SHT31;67755;51.986;5.696;2023-05-01T06:28:20;15.1;49.2
78461;SHT31;67755;51.986;5.696;2023-05-01T06:30:49;15.1;49.0
78461;SHT31;67755;51.986;5.696;2023-05-01T06:33:19;15.1;50.4
78461;SHT31;67755;51.986;5.696;2023-05-01T06:35:49;15.1;52.0
78461;SHT31;67755;51.986;5.696;2023-05-01T06:38:19;15.1;52.3
78461;SHT31;67755;51.986;5.696;2023-05-01T06:40:49;15.1;51.6
78461;SHT31;67755;51.986;5.696;2023-05-01T06:43:19;15.2;50.1
78461;SHT31;67755;51.986;5.696;2023-05-01T06:45:49;15.2;50.7
78461;SHT31;67755;51.986;5.696;2023-05-01T06:48:19;15.2;50.3
78461;SHT31;67755;51.986;5.696;2023-05-01T06:50:48;15.3;50.1
78461;SHT31;67755;51.986;5.696;2023-05-01T06:53:18;15.3;49.8
78461;SHT31;67755;51.986;5.696;2023-05-01T06:55:48;15.3;50.4
78461;SHT31;67755;51.986;5.696;2023-05-01T06:58:18;15.3;50.4
78461;SHT31;67755;51.986;5.696;2023-05-01T07:00:47;15.4;49.7
78461;SHT31;67755;51.986;5.696;2023-05-01T07:03:17;15.4;49.9
78461;SHT31;67755;51.986;5.696;2023-05-01T07:05:47;15.4;51.3
78461;SHT31;67755;51.986;5.696;2023-05-01T07:08:17;15.5;51.9
78461;SHT31;67755;51.986;5.696;2023-05-01T07:10:47;15.5;50.3
78461;SHT31;67755;51.986;5.696;2023-05-01T07:13:17;15.5;50.5
78461;SHT31;67755;51.986;5.696;2023-05-01T07:15:47;15.6;50.8
78461;SHT31;67755;51.986;5.696;2023-05-01T07:18:17;15.6;51.7
78461;SHT31;67755;51.986;5.696;2023-05-01T07:20:46;15.7;52.1
78461;SHT31;67755;51.986;5.696;2023-05-01T07:23:16;15.7;53.1
78461;SHT31;67755;51.986;5.696;2023-05-01T07:25:46;15.8;51.7
78461;SHT31;67755;51.986;5.696;2023-05-01T07:28:18;15.8;51.7
78461;SHT31;67755;51.986;5.696;2023-05-01T07:30:48;15.9;51.7
78461;SHT31;67755;51.986;5.696;2023-05-01T07:33:18;15.9;50.7
78461;SHT31;67755;51.986;5.696;2023-05-01T07:35:47;16.0;49.2
78461;SHT31;67755;51.986;5.696;2023-05-01T07:38:17;16.0;48.9
78461;SHT31;67755;51.986;5.696;2023-05-01T07:40:51;16.1;49.7
78461;SHT31;67755;51.986;5.696;2023-05-01T07:43:22;16.1;49.5
78461;SHT31;67755;51.986;5.696;2023-05-01T07:45:57;16.2;50.5
78461;SHT31;67755;51.986;5.696;2023-05-01T07:48:29;16.2;49.8
78461;SHT31;67755;51.986;5.696;2023-05-01T07:51:01;16.3;50.8
78461;SHT31;67755;51.986;5.696;2023-05-01T07:53:31;16.3;49.5
78461;SHT31;67755;51.986;5.696;2023-05-01T07:56:08;16.4;50.7
78461;SHT31;67755;51.986;5.696;2023-05-01T07:58:37;16.4;50.3
78461;SHT31;67755;51.986;5.696;2023-05-01T08:01:09;16.5;51.8
78461;SHT31;67755;51.986;5.696;2023-05-01T08:03:38;16.6;49.3
78461;SHT31;67755;51.986;5.696;2023-05-01T08:06:08;16.6;49.7
78461;SHT31;67755;51.986;5.696;2023-05-01T08:08:38;16.7;50.3
78461;SHT31;67755;51.986;5.696;2023-05-01T08:11:08;16.8;49.2
78461;SHT31;67755;51.986;5.696;2023-05-01T08:13:38;16.9;48.3
78461;SHT31;67755;51.986;5.696;2023-05-01T08:16:07;17.0;47.5
78461;SHT31;67755;51.986;5.696;2023-05-01T08:18:37;17.1;48.2
78461;SHT31;67755;51.986;5.696;2023-05-01T08:21:06;17.2;49.5
78461;SHT31;67755;51.986;5.696;2023-05-01T08:23:36;17.3;48.7
78461;SHT31;67755;51.986;5.696;2023-05-01T08:26:06;17.3;49.2
78461;SHT31;67755;51.986;5.696;2023-05-01T08:28:35;17.4;46.4
78461;SHT31;67755;51.986;5.696;2023-05-01T08:31:05;17.5;47.0
78461;SHT31;67755;51.986;5.696;2023-05-01T08:33:35;17.6;46.4
78461;SHT31;67755;51.986;5.696;2023-05-01T08:36:08;17.7;45.7
78461;SHT31;67755;51.986;5.696;2023-05-01T08:38:38;17.8;45.8
78461;SHT31;67755;51.986;5.696;2023-05-01T08:41:08;17.9;45.8
78461;SHT31;67755;51.986;5.696;2023-05-01T08:43:40;18.0;46.2
78461;SHT31;67755;51.986;5.696;2023-05-01T08:46:12;18.1;44.4
78461;SHT31;67755;51.986;5.696;2023-05-01T08:48:45;18.2;44.8
78461;SHT31;67755;51.986;5.696;2023-05-01T08:51:15;18.3;44.5
78461;SHT31;67755;51.986;5.696;2023-05-01T08:53:51;18.4;44.5
78461;SHT31;67755;51.986;5.696;2023-05-01T08:56:22;18.5;45.7
78461;SHT31;67755;51.986;5.696;2023-05-01T08:58:54;18.6;46.1
78461;SHT31;67755;51.986;5.696;2023-05-01T09:01:29;18.7;46.0
78461;SHT31;67755;51.986;5.696;2023-05-01T09:04:01;18.7;45.4
78461;SHT31;67755;51.986;5.696;2023-05-01T09:06:31;18.8;45.6
78461;SHT31;67755;51.986;5.696;2023-05-01T09:09:01;18.9;45.5
78461;SHT31;67755;51.986;5.696;2023-05-01T09:11:31;19.0;44.4
78461;SHT31;67755;51.986;5.696;2023-05-01T09:14:02;19.1;44.9
78461;SHT31;67755;51.986;5.696;2023-05-01T09:16:34;19.2;45.6
78461;SHT31;67755;51.986;5.696;2023-05-01T09:19:04;19.3;44.2
78461;SHT31;67755;51.986;5.696;2023-05-01T09:21:35;19.4;44.4
78461;SHT31;67755;51.986;5.696;2023-05-01T09:24:07;19.5;45.5
78461;SHT31;67755;51.986;5.696;2023-05-01T09:26:38;19.6;43.9
78461;SHT31;67755;51.986;5.696;2023-05-01T09:29:08;19.7;43.9
78461;SHT31;67755;51.986;5.696;2023-05-01T09:31:38;19.8;43.2
78461;SHT31;67755;51.986;5.696;2023-05-01T09:34:08;19.9;43.5
78461;SHT31;67755;51.986;5.696;2023-05-01T09:36:38;19.9;42.0
78461;SHT31;67755;51.986;5.696;2023-05-01T09:39:07;20.0;44.0
78461;SHT31;67755;51.986;5.696;2023-05-01T09:41:51;20.0;44.0
78461;SHT31;67755;51.986;5.696;2023-05-01T09:44:22;20.1;41.7
78461;SHT31;67755;51.986;5.696;2023-05-01T09:46:53;20.2;40.7
78461;SHT31;67755;51.986;5.696;2023-05-01T09:49:45;20.3;40.5
78461;SHT31;67755;51.986;5.696;2023-05-01T09:52:16;20.4;44.4
78461;SHT31;67755;51.986;5.696;2023-05-01T09:54:47;20.5;44.0
78461;SHT31;67755;51.986;5.696;2023-05-01T09:57:35;20.6;43.5
78461;SHT31;67755;51.986;5.696;2023-05-01T10:00:05;20.8;43.3
78461;SHT31;67755;51.986;5.696;2023-05-01T10:02:39;20.9;42.2
78461;SHT31;67755;51.986;5.696;2023-05-01T10:05:10;20.9;41.6
78461;SHT31;67755;51.986;5.696;2023-05-01T10:07:56;21.0;41.9
78461;SHT31;67755;51.986;5.696;2023-05-01T10:10:27;21.1;43.3
78461;SHT31;67755;51.986;5.696;2023-05-01T10:13:13;21.1;43.2
78461;SHT31;67755;51.986;5.696;2023-05-01T10:15:43;21.1;42.3
78461;SHT31;67755;51.986;5.696;2023-05-01T10:18:14;21.2;42.4
78461;SHT31;67755;51.986;5.696;2023-05-01T10:20:44;21.2;42.9
78461;SHT31;67755;51.986;5.696;2023-05-01T10:23:13;21.2;43.8
78461;SHT31;67755;51.986;5.696;2023-05-01T10:25:44;21.3;43.3
78461;SHT31;67755;51.986;5.696;2023-05-01T10:28:15;21.3;42.5
78461;SHT31;67755;51.986;5.696;2023-05-01T10:30:44;21.3;41.5
78461;SHT31;67755;51.986;5.696;2023-05-01T10:33:15;21.4;41.8
78461;SHT31;67755;51.986;5.696;2023-05-01T10:35:49;21.4;41.4
78461;SHT31;67755;51.986;5.696;2023-05-01T10:38:28;21.4;41.5
78461;SHT31;67755;51.986;5.696;2023-05-01T10:41:02;21.5;42.2
78461;SHT31;67755;51.986;5.696;2023-05-01T10:43:32;21.6;41.8
78461;SHT31;67755;51.986;5.696;2023-05-01T10:46:46;21.6;41.0
78461;SHT31;67755;51.986;5.696;2023-05-01T10:49:16;21.8;41.1
78461;SHT31;67755;51.986;5.696;2023-05-01T10:52:01;21.9;40.0
78461;SHT31;67755;51.986;5.696;2023-05-01T10:54:30;22.0;39.6
78461;SHT31;67755;51.986;5.696;2023-05-01T10:57:01;22.1;40.1
78461;SHT31;67755;51.986;5.696;2023-05-01T11:00:13;22.2;39.7
78461;SHT31;67755;51.986;5.696;2023-05-01T11:02:43;22.3;38.5
78461;SHT31;67755;51.986;5.696;2023-05-01T11:05:12;22.3;38.7
78461;SHT31;67755;51.986;5.696;2023-05-01T11:07:42;22.4;40.2
78461;SHT31;67755;51.986;5.696;2023-05-01T11:10:26;22.5;38.2
78461;SHT31;67755;51.986;5.696;2023-05-01T11:12:56;22.5;37.8
78461;SHT31;67755;51.986;5.696;2023-05-01T11:15:27;22.5;36.3
78461;SHT31;67755;51.986;5.696;2023-05-01T11:17:58;22.6;38.2
78461;SHT31;67755;51.986;5.696;2023-05-01T11:20:46;22.6;38.1
78461;SHT31;67755;51.986;5.696;2023-05-01T11:23:21;22.6;36.8
78461;SHT31;67755;51.986;5.696;2023-05-01T11:26:01;22.7;37.2
78461;SHT31;67755;51.986;5.696;2023-05-01T11:28:39;22.7;36.0
78461;SHT31;67755;51.986;5.696;2023-05-01T11:31:18;22.7;36.7
78461;SHT31;67755;51.986;5.696;2023-05-01T11:33:49;22.8;37.2
78461;SHT31;67755;51.986;5.696;2023-05-01T11:36:19;22.8;36.9
78461;SHT31;67755;51.986;5.696;2023-05-01T11:38:53;22.8;36.2
78461;SHT31;67755;51.986;5.696;2023-05-01T11:41:25;22.8;36.3
78461;SHT31;67755;51.986;5.696;2023-05-01T11:43:57;22.8;35.7
78461;SHT31;67755;51.986;5.696;2023-05-01T11:46:28;22.8;35.5
78461;SHT31;67755;51.986;5.696;2023-05-01T11:49:00;22.7;35.5
78461;SHT31;67755;51.986;5.696;2023-05-01T11:51:30;22.7;35.5
78461;SHT31;67755;51.986;5.696;2023-05-01T11:54:02;22.7;35.0
78461;SHT31;67755;51.986;5.696;2023-05-01T11:56:33;22.7;36.3
78461;SHT31;67755;51.986;5.696;2023-05-01T11:59:11;22.7;36.5
78461;SHT31;67755;51.986;5.696;2023-05-01T12:01:43;22.7;36.9
78461;SHT31;67755;51.986;5.696;2023-05-01T12:04:24;22.6;37.5
78461;SHT31;67755;51.986;5.696;2023-05-01T12:06:54;22.6;37.7
78461;SHT31;67755;51.986;5.696;2023-05-01T12:09:25;22.6;36.9
78461;SHT31;67755;51.986;5.696;2023-05-01T12:11:56;22.6;37.5
78461;SHT31;67755;51.986;5.696;2023-05-01T12:14:28;22.6;38.0
78461;SHT31;67755;51.986;5.696;2023-05-01T12:17:00;22.6;37.5
78461;SHT31;67755;51.986;5.696;2023-05-01T12:19:31;22.5;36.8
78461;SHT31;67755;51.986;5.696;2023-05-01T12:22:07;22.5;37.4
78461;SHT31;67755;51.986;5.696;2023-05-01T12:24:36;22.5;37.6
78461;SHT31;67755;51.986;5.696;2023-05-01T12:27:06;22.5;39.0
78461;SHT31;67755;51.986;5.696;2023-05-01T12:29:42;22.6;37.7
78461;SHT31;67755;51.986;5.696;2023-05-01T12:32:15;22.6;37.7
78461;SHT31;67755;51.986;5.696;2023-05-01T12:34:44;22.7;35.9
78461;SHT31;67755;51.986;5.696;2023-05-01T12:37:14;22.7;36.4
78461;SHT31;67755;51.986;5.696;2023-05-01T12:39:44;22.8;35.8
78461;SHT31;67755;51.986;5.696;2023-05-01T12:42:14;22.9;35.3
78461;SHT31;67755;51.986;5.696;2023-05-01T12:44:47;23.0;34.3
78461;SHT31;67755;51.986;5.696;2023-05-01T12:47:17;23.0;35.3
78461;SHT31;67755;51.986;5.696;2023-05-01T12:49:48;23.1;34.7
78461;SHT31;67755;51.986;5.696;2023-05-01T12:52:26;23.1;33.7
78461;SHT31;67755;51.986;5.696;2023-05-01T12:55:04;23.2;35.7
78461;SHT31;67755;51.986;5.696;2023-05-01T12:57:54;23.2;34.2
78461;SHT31;67755;51.986;5.696;2023-05-01T13:00:26;23.3;33.8
78461;SHT31;67755;51.986;5.696;2023-05-01T13:03:03;23.3;33.6
78461;SHT31;67755;51.986;5.696;2023-05-01T13:05:33;23.4;34.1
78461;SHT31;67755;51.986;5.696;2023-05-01T13:08:03;23.4;35.1
78461;SHT31;67755;51.986;5.696;2023-05-01T13:10:33;23.4;33.2
78461;SHT31;67755;51.986;5.696;2023-05-01T13:13:05;23.4;34.7
78461;SHT31;67755;51.986;5.696;2023-05-01T13:15:35;23.4;34.3
78461;SHT31;67755;51.986;5.696;2023-05-01T13:18:05;23.4;34.0
78461;SHT31;67755;51.986;5.696;2023-05-01T13:20:34;23.4;34.6
78461;SHT31;67755;51.986;5.696;2023-05-01T13:23:10;23.4;34.0
78461;SHT31;67755;51.986;5.696;2023-05-01T13:25:41;23.3;34.2
78461;SHT31;67755;51.986;5.696;2023-05-01T13:28:18;23.3;35.8
78461;SHT31;67755;51.986;5.696;2023-05-01T13:30:48;23.3;37.3
78461;SHT31;67755;51.986;5.696;2023-05-01T13:33:18;23.2;37.6
78461;SHT31;67755;51.986;5.696;2023-05-01T13:35:48;23.1;37.4
78461;SHT31;67755;51.986;5.696;2023-05-01T13:38:17;23.1;38.1
78461;SHT31;67755;51.986;5.696;2023-05-01T13:40:50;23.0;38.3
78461;SHT31;67755;51.986;5.696;2023-05-01T13:43:20;22.9;38.1
78461;SHT31;67755;51.986;5.696;2023-05-01T13:45:50;22.8;38.2
78461;SHT31;67755;51.986;5.696;2023-05-01T13:48:20;22.8;37.5
78461;SHT31;67755;51.986;5.696;2023-05-01T13:50:50;22.7;38.4
78461;SHT31;67755;51.986;5.696;2023-05-01T13:53:21;22.6;39.4
78461;SHT31;67755;51.986;5.696;2023-05-01T13:55:51;22.6;38.2
78461;SHT31;67755;51.986;5.696;2023-05-01T13:58:21;22.5;38.6
78461;SHT31;67755;51.986;5.696;2023-05-01T14:00:50;22.5;39.2
78461;SHT31;67755;51.986;5.696;2023-05-01T14:03:20;22.4;39.1
78461;SHT31;67755;51.986;5.696;2023-05-01T14:05:50;22.3;38.8
78461;SHT31;67755;51.986;5.696;2023-05-01T14:08:27;22.3;39.1
78461;SHT31;67755;51.986;5.696;2023-05-01T14:10:58;22.2;39.2
78461;SHT31;67755;51.986;5.696;2023-05-01T14:13:31;22.2;40.2
78461;SHT31;67755;51.986;5.696;2023-05-01T14:16:01;22.1;40.9
78461;SHT31;67755;51.986;5.696;2023-05-01T14:18:31;22.1;40.2
78461;SHT31;67755;51.986;5.696;2023-05-01T14:21:03;22.0;40.9
78461;SHT31;67755;51.986;5.696;2023-05-01T14:23:34;22.0;41.0
78461;SHT31;67755;51.986;5.696;2023-05-01T14:26:04;22.0;40.8
78461;SHT31;67755;51.986;5.696;2023-05-01T14:28:42;21.9;40.7
78461;SHT31;67755;51.986;5.696;2023-05-01T14:31:15;21.9;40.9
78461;SHT31;67755;51.986;5.696;2023-05-01T14:33:45;21.8;41.3
78461;SHT31;67755;51.986;5.696;2023-05-01T14:36:19;21.8;41.2
78461;SHT31;67755;51.986;5.696;2023-05-01T14:38:51;21.7;41.5
78461;SHT31;67755;51.986;5.696;2023-05-01T14:41:24;21.7;41.8
78461;SHT31;67755;51.986;5.696;2023-05-01T14:43:54;21.7;41.6
78461;SHT31;67755;51.986;5.696;2023-05-01T14:46:30;21.6;42.3
78461;SHT31;67755;51.986;5.696;2023-05-01T14:49:01;21.6;42.9
78461;SHT31;67755;51.986;5.696;2023-05-01T14:51:32;21.5;42.6
78461;SHT31;67755;51.986;5.696;2023-05-01T14:54:03;21.5;42.1
78461;SHT31;67755;51.986;5.696;2023-05-01T14:56:34;21.5;41.7
78461;SHT31;67755;51.986;5.696;2023-05-01T14:59:03;21.4;41.7
78461;SHT31;67755;51.986;5.696;2023-05-01T15:01:33;21.4;41.8
78461;SHT31;67755;51.986;5.696;2023-05-01T15:04:03;21.4;41.5
78461;SHT31;67755;51.986;5.696;2023-05-01T15:06:33;21.3;41.5
78461;SHT31;67755;51.986;5.696;2023-05-01T15:09:03;21.3;41.7
78461;SHT31;67755;51.986;5.696;2023-05-01T15:11:33;21.3;42.0
78461;SHT31;67755;51.986;5.696;2023-05-01T15:14:03;21.2;42.0
78461;SHT31;67755;51.986;5.696;2023-05-01T15:16:32;21.2;41.8
78461;SHT31;67755;51.986;5.696;2023-05-01T15:19:02;21.2;42.3
78461;SHT31;67755;51.986;5.696;2023-05-01T15:21:32;21.2;41.5
78461;SHT31;67755;51.986;5.696;2023-05-01T15:24:02;21.2;41.7
78461;SHT31;67755;51.986;5.696;2023-05-01T15:26:32;21.3;40.8
78461;SHT31;67755;51.986;5.696;2023-05-01T15:29:02;21.3;41.6
78461;SHT31;67755;51.986;5.696;2023-05-01T15:31:31;21.3;39.9
78461;SHT31;67755;51.986;5.696;2023-05-01T15:34:01;21.4;39.6
78461;SHT31;67755;51.986;5.696;2023-05-01T15:36:31;21.4;40.0
78461;SHT31;67755;51.986;5.696;2023-05-01T15:39:02;21.4;40.7
78461;SHT31;67755;51.986;5.696;2023-05-01T15:41:33;21.4;40.0
78461;SHT31;67755;51.986;5.696;2023-05-01T15:44:03;21.5;39.2
78461;SHT31;67755;51.986;5.696;2023-05-01T15:46:34;21.5;40.1
78461;SHT31;67755;51.986;5.696;2023-05-01T15:49:06;21.5;40.1
78461;SHT31;67755;51.986;5.696;2023-05-01T15:51:36;21.5;39.9
78461;SHT31;67755;51.986;5.696;2023-05-01T15:54:06;21.5;39.9
78461;SHT31;67755;51.986;5.696;2023-05-01T15:56:36;21.5;40.1
78461;SHT31;67755;51.986;5.696;2023-05-01T15:59:06;21.5;39.4
78461;SHT31;67755;51.986;5.696;2023-05-01T16:01:36;21.5;39.6
78461;SHT31;67755;51.986;5.696;2023-05-01T16:04:06;21.5;39.5
78461;SHT31;67755;51.986;5.696;2023-05-01T16:06:39;21.5;39.6
78461;SHT31;67755;51.986;5.696;2023-05-01T16:09:09;21.5;40.3
78461;SHT31;67755;51.986;5.696;2023-05-01T16:11:39;21.5;40.2
78461;SHT31;67755;51.986;5.696;2023-05-01T16:14:09;21.5;39.6
78461;SHT31;67755;51.986;5.696;2023-05-01T16:16:40;21.5;40.1
78461;SHT31;67755;51.986;5.696;2023-05-01T16:19:14;21.5;40.6
78461;SHT31;67755;51.986;5.696;2023-05-01T16:21:45;21.5;40.2
78461;SHT31;67755;51.986;5.696;2023-05-01T16:24:14;21.5;40.3
78461;SHT31;67755;51.986;5.696;2023-05-01T16:26:45;21.5;40.2
78461;SHT31;67755;51.986;5.696;2023-05-01T16:29:15;21.4;40.1
78461;SHT31;67755;51.986;5.696;2023-05-01T16:31:45;21.4;40.1
78461;SHT31;67755;51.986;5.696;2023-05-01T16:34:16;21.4;39.4